Time;durP1;ratioP1;P1;durP2;ratioP2;P2;SDS_P1;SDS_P2;PMS_P1;PMS_P2;Temp;Humidity;BMP_temperature;BMP_pressure;BME280_temperature;BME280_humidity;BME280_pressure;Samples;Min_cycle;Max_cycle;Signal;HPM_P1;HPM_P2
2022/11/17 00:00:14;;;;;;;0.60;0.60;;;8.60;99.90;;;;;;5116054;28;20055;-79
2022/11/17 00:02:40;;;;;;;0.40;0.40;;;8.70;99.90;;;;;;5099617;28;20047;-79
2022/11/17 00:05:06;;;;;;;7.43;0.40;;;8.60;99.90;;;;;;5116561;28;20062;-79
2022/11/17 00:07:31;;;;;;;0.20;0.20;;;8.60;99.90;;;;;;5101223;27;20119;-79
2022/11/17 00:09:57;;;;;;;0.13;0.13;;;8.70;99.90;;;;;;5120068;27;20043;-79
2022/11/17 00:15:07;;;;;;;1.17;0.85;;;8.70;99.90;;;;;;5120205;27;20047;-80
2022/11/17 00:17:33;;;;;;;0.38;0.38;;;8.70;99.90;;;;;;5120159;27;20039;-81
2022/11/17 00:22:42;;;;;;;5.53;0.52;;;8.70;99.90;;;;;;5120300;27;20054;-80
2022/11/17 00:25:08;;;;;;;0.85;0.85;;;8.80;99.90;;;;;;5103187;27;20051;-80
2022/11/17 00:27:34;;;;;;;1.08;0.20;;;8.70;99.90;;;;;;5103193;27;20130;-80
2022/11/17 00:29:59;;;;;;;1.23;0.88;;;8.70;99.90;;;;;;5102959;27;20474;-80
2022/11/17 00:35:09;;;;;;;0.22;0.22;;;8.70;99.90;;;;;;5120239;27;20388;-79
2022/11/17 00:38:14;;;;;;;1.33;0.35;;;8.70;99.90;;;;;;5119544;27;20053;-80
2022/11/17 00:40:27;;;;;;;0.63;0.63;;;8.80;99.90;;;;;;5119730;27;20583;-80
2022/11/17 00:42:53;;;;;;;0.32;0.32;;;8.70;99.90;;;;;;5119627;27;20126;-80
2022/11/17 00:45:19;;;;;;;0.80;0.80;;;8.70;99.90;;;;;;5102645;27;20592;-80
2022/11/17 00:47:44;;;;;;;0.47;0.20;;;8.70;99.90;;;;;;5102235;27;20039;-80
2022/11/17 00:50:10;;;;;;;1.25;0.70;;;8.70;99.90;;;;;;5102568;27;20055;-80
2022/11/17 00:52:35;;;;;;;1.40;0.20;;;8.70;99.90;;;;;;5119626;27;20047;-80
2022/11/17 00:55:02;;;;;;;0.68;0.57;;;8.70;99.90;;;;;;5119400;27;20509;-80
2022/11/17 00:57:27;;;;;;;0.68;0.68;;;8.70;99.90;;;;;;5102227;27;20428;-79
2022/11/17 00:59:53;;;;;;;1.02;0.40;;;8.70;99.90;;;;;;5118761;27;20103;-80
2022/11/17 01:02:19;;;;;;;4.47;0.52;;;8.70;99.90;;;;;;5101674;27;20043;-80
2022/11/17 01:04:44;;;;;;;0.43;0.43;;;8.80;99.90;;;;;;5119317;27;20364;-80
2022/11/17 01:07:10;;;;;;;1.77;1.17;;;8.70;99.90;;;;;;5119628;27;20047;-80
2022/11/17 01:09:35;;;;;;;0.85;0.50;;;8.70;99.90;;;;;;5119186;27;20115;-80
2022/11/17 01:12:01;;;;;;;0.10;0.10;;;8.80;99.90;;;;;;5102023;27;20051;-80
2022/11/17 01:14:28;;;;;;;0.63;0.63;;;8.80;99.90;;;;;;5101595;27;20039;-80
2022/11/17 01:16:54;;;;;;;2.13;0.85;;;8.80;99.90;;;;;;5101862;27;20057;-80
2022/11/17 01:19:21;;;;;;;0.28;0.28;;;8.70;99.90;;;;;;5118859;27;20051;-80
2022/11/17 01:21:47;;;;;;;0.43;0.43;;;8.70;99.90;;;;;;5118913;27;20099;-80
2022/11/17 01:24:15;;;;;;;0.63;0.47;;;8.70;99.90;;;;;;5118721;27;20047;-79
2022/11/17 01:26:42;;;;;;;0.43;0.43;;;8.70;99.90;;;;;;5118607;27;20428;-80
2022/11/17 01:29:10;;;;;;;1.30;0.90;;;8.70;99.90;;;;;;5101366;27;20050;-80
2022/11/17 01:31:42;;;;;;;0.68;0.10;;;8.80;99.90;;;;;;5101624;27;20096;-80
2022/11/17 01:34:08;;;;;;;0.55;0.55;;;8.70;99.90;;;;;;5101091;27;20054;-80
2022/11/17 01:39:29;;;;;;;0.10;0.10;;;8.80;99.90;;;;;;5118400;27;20414;-80
2022/11/17 01:41:55;;;;;;;0.00;0.00;;;8.80;99.90;;;;;;5101127;27;20134;-80
2022/11/17 01:44:39;;;;;;;0.32;0.32;;;8.80;99.90;;;;;;5101467;27;20127;-80
2022/11/17 01:47:15;;;;;;;0.37;0.37;;;8.80;99.90;;;;;;5101633;27;20043;-80
2022/11/17 01:49:41;;;;;;;0.47;0.30;;;8.80;99.90;;;;;;5118271;27;20051;-81
2022/11/17 01:52:08;;;;;;;0.20;0.20;;;8.80;99.90;;;;;;5118263;27;20049;-80
2022/11/17 01:54:39;;;;;;;0.30;0.30;;;8.80;99.90;;;;;;5101137;27;20039;-80
2022/11/17 01:57:11;;;;;;;0.25;0.25;;;8.80;99.90;;;;;;5101233;27;20196;-80
2022/11/17 01:59:44;;;;;;;0.30;0.20;;;8.70;99.90;;;;;;5100922;27;20529;-80
2022/11/17 02:02:10;;;;;;;1.45;0.43;;;8.70;99.90;;;;;;5117940;27;20054;-80
2022/11/17 02:05:08;;;;;;;0.57;0.38;;;8.80;99.90;;;;;;5117909;27;20043;-80
2022/11/17 02:07:37;;;;;;;0.85;0.35;;;8.80;99.90;;;;;;5117982;27;20055;-80
2022/11/17 02:10:04;;;;;;;0.30;0.28;;;8.80;99.90;;;;;;5117808;27;20061;-80
2022/11/17 02:12:31;;;;;;;0.10;0.10;;;8.80;99.90;;;;;;5100770;27;20094;-80
2022/11/17 02:14:58;;;;;;;4.85;0.52;;;8.80;99.90;;;;;;5117432;27;20039;-80
2022/11/17 02:17:36;;;;;;;2.08;1.30;;;8.80;99.90;;;;;;5117774;27;20498;-81
2022/11/17 02:20:23;;;;;;;0.00;0.00;;;8.70;99.90;;;;;;5117885;27;20039;-80
2022/11/17 02:23:13;;;;;;;0.47;0.47;;;8.70;99.90;;;;;;5117752;27;20562;-80
2022/11/17 02:26:07;;;;;;;5.93;1.45;;;8.70;99.90;;;;;;5100751;27;20053;-80
2022/11/17 02:29:02;;;;;;;0.00;0.00;;;8.70;99.90;;;;;;5100874;27;20046;-80
2022/11/17 02:31:37;;;;;;;0.10;0.10;;;8.70;99.90;;;;;;5116569;27;20043;-81
2022/11/17 02:34:18;;;;;;;;;;;8.70;99.90;;;;;;5118179;27;20043;-82
2022/11/17 02:37:06;;;;;;;0.40;0.30;;;8.60;99.90;;;;;;5117341;27;20394;-83
2022/11/17 02:39:41;;;;;;;1.08;0.43;;;8.60;99.90;;;;;;5100350;27;20051;-83
2022/11/17 02:42:13;;;;;;;0.52;0.40;;;8.60;99.90;;;;;;5117133;27;20039;-84
2022/11/17 02:44:55;;;;;;;0.90;0.50;;;8.60;99.90;;;;;;5117203;27;20051;-83
2022/11/17 02:47:25;;;;;;;0.20;0.10;;;8.60;99.90;;;;;;5117316;27;20148;-83
2022/11/17 02:50:00;;;;;;;0.17;0.10;;;8.60;99.90;;;;;;5100268;27;20080;-83
2022/11/17 02:52:28;;;;;;;1.65;0.65;;;8.60;99.90;;;;;;5116639;27;20047;-83
2022/11/17 02:55:03;;;;;;;0.17;0.17;;;8.50;99.90;;;;;;5099723;27;20517;-82
2022/11/17 02:57:37;;;;;;;0.20;0.20;;;8.50;99.90;;;;;;5117009;27;20039;-82
2022/11/17 03:00:15;;;;;;;0.73;0.73;;;8.50;99.90;;;;;;5099957;27;20055;-82
2022/11/17 03:03:08;;;;;;;0.47;0.35;;;8.50;99.90;;;;;;5116648;28;20057;-82
2022/11/17 03:06:08;;;;;;;0.00;0.00;;;8.50;99.90;;;;;;5117141;27;20054;-83
2022/11/17 03:09:11;;;;;;;0.57;0.57;;;8.50;99.90;;;;;;5116945;28;20494;-82
2022/11/17 03:11:52;;;;;;;0.30;0.30;;;8.50;99.90;;;;;;5100555;28;20075;-83
2022/11/17 03:14:43;;;;;;;0.77;0.55;;;8.50;99.90;;;;;;5099554;28;20045;-81
2022/11/17 03:17:30;;;;;;;4.13;0.77;;;8.50;99.90;;;;;;5116934;28;20075;-81
2022/11/17 03:20:15;;;;;;;0.10;0.10;;;8.40;99.90;;;;;;5116509;28;20043;-82
2022/11/17 03:23:13;;;;;;;0.88;0.38;;;8.50;99.90;;;;;;5116960;28;20047;-82
2022/11/17 03:25:43;;;;;;;0.00;0.00;;;8.50;99.90;;;;;;5116664;28;20051;-81
2022/11/17 03:28:11;;;;;;;0.03;0.03;;;8.50;99.90;;;;;;5117451;28;20386;-82
2022/11/17 03:30:40;;;;;;;0.00;0.00;;;8.40;99.90;;;;;;5116802;28;20058;-82
2022/11/17 03:33:14;;;;;;;0.30;0.17;;;8.50;99.90;;;;;;5099797;28;20096;-83
2022/11/17 03:35:42;;;;;;;0.52;0.52;;;8.50;99.90;;;;;;5099534;28;20222;-81
2022/11/17 03:38:11;;;;;;;0.17;0.10;;;8.40;99.90;;;;;;5099361;28;20047;-83
2022/11/17 03:40:41;;;;;;;0.90;0.22;;;8.40;99.90;;;;;;5116509;28;20051;-82
2022/11/17 03:43:10;;;;;;;1.75;0.30;;;8.40;99.90;;;;;;5120187;27;20082;-83
2022/11/17 03:45:45;;;;;;;0.10;0.10;;;8.50;99.90;;;;;;5120797;27;20047;-83
2022/11/17 03:48:27;;;;;;;0.00;0.00;;;8.40;99.90;;;;;;5103980;27;20043;-83
2022/11/17 03:51:07;;;;;;;0.47;0.20;;;8.40;99.90;;;;;;5120534;27;20047;-83
2022/11/17 03:53:34;;;;;;;0.85;0.60;;;8.40;99.90;;;;;;5103759;27;20039;-82
2022/11/17 03:56:15;;;;;;;0.20;0.10;;;8.40;99.90;;;;;;5103258;27;20051;-84
2022/11/17 03:58:52;;;;;;;0.45;0.20;;;8.40;99.90;;;;;;5121244;27;20367;-83
2022/11/17 04:01:19;;;;;;;0.45;0.35;;;8.40;99.90;;;;;;5116383;28;20105;-84
2022/11/17 04:03:45;;;;;;;1.23;0.00;;;8.40;99.90;;;;;;5099757;28;20086;-83
2022/11/17 04:06:11;;;;;;;0.47;0.47;;;8.40;99.90;;;;;;5116748;28;20079;-82
2022/11/17 04:08:37;;;;;;;0.00;0.00;;;8.40;99.90;;;;;;5101264;28;20047;-83
2022/11/17 04:16:31;;;;;;;0.28;0.20;;;8.30;99.90;;;;;;5096291;28;20059;-83
2022/11/17 04:18:56;;;;;;;3.40;0.55;;;8.30;99.90;;;;;;5096148;28;20040;-85
2022/11/17 04:21:22;;;;;;;0.65;0.30;;;8.40;99.90;;;;;;5096097;28;20518;-85
2022/11/17 04:23:47;;;;;;;3.70;1.75;;;8.30;99.90;;;;;;5096116;28;20089;-86
2022/11/17 04:28:57;;;;;;;1.02;0.30;;;8.30;99.90;;;;;;5096558;28;20054;-85
2022/11/17 04:31:27;;;;;;;0.20;0.10;;;8.30;99.90;;;;;;5095999;28;20036;-84
2022/11/17 04:33:59;;;;;;;0.00;0.00;;;8.30;99.90;;;;;;5078662;28;20096;-83
2022/11/17 04:36:30;;;;;;;0.47;0.20;;;8.30;99.90;;;;;;5078697;28;20056;-82
2022/11/17 04:38:58;;;;;;;0.05;0.05;;;8.30;99.90;;;;;;5079296;28;20091;-83
2022/11/17 04:44:11;;;;;;;0.30;0.20;;;8.20;99.90;;;;;;5095899;28;20051;-81
2022/11/17 04:46:38;;;;;;;1.98;0.70;;;8.20;99.90;;;;;;5095693;28;20054;-81
2022/11/17 04:49:05;;;;;;;1.38;1.08;;;8.20;99.90;;;;;;5095483;28;20109;-81
2022/11/17 04:51:31;;;;;;;0.00;0.00;;;8.30;99.90;;;;;;5078530;28;20491;-81
2022/11/17 04:53:57;;;;;;;0.57;0.57;;;8.30;99.90;;;;;;5077175;28;20040;-81
2022/11/17 04:56:25;;;;;;;0.17;0.15;;;8.30;99.90;;;;;;5095637;28;20040;-80
2022/11/17 04:58:51;;;;;;;0.50;0.30;;;8.20;99.90;;;;;;5095219;28;20036;-81
2022/11/17 05:01:19;;;;;;;0.47;0.45;;;8.20;99.90;;;;;;5078207;28;20488;-82
2022/11/17 05:03:47;;;;;;;0.10;0.00;;;8.20;99.90;;;;;;5077755;28;20048;-80
2022/11/17 05:06:16;;;;;;;1.63;0.10;;;8.20;99.90;;;;;;5095204;28;20533;-81
2022/11/17 05:08:42;;;;;;;0.00;0.00;;;8.20;99.90;;;;;;5078416;28;20055;-81
2022/11/17 05:13:54;;;;;;;0.05;0.03;;;8.10;99.90;;;;;;5094775;28;20052;-81
2022/11/17 05:19:07;;;;;;;1.38;0.08;;;8.10;99.90;;;;;;5095464;28;20127;-82
2022/11/17 05:21:33;;;;;;;0.00;0.00;;;8.10;99.90;;;;;;5095328;28;20044;-82
2022/11/17 05:23:58;;;;;;;0.00;0.00;;;8.10;99.90;;;;;;5078132;28;20047;-84
2022/11/17 05:26:30;;;;;;;0.05;0.00;;;8.00;99.90;;;;;;5094726;28;20036;-84
2022/11/17 05:28:58;;;;;;;0.00;0.00;;;8.00;99.90;;;;;;5078729;28;20109;-84
2022/11/17 05:31:25;;;;;;;0.00;0.00;;;7.90;99.90;;;;;;5078124;28;20536;-84
2022/11/17 05:33:52;;;;;;;0.43;0.30;;;7.90;99.90;;;;;;5077616;28;20040;-84
2022/11/17 05:36:19;;;;;;;0.00;0.00;;;7.90;99.90;;;;;;5077850;28;20101;-85
2022/11/17 05:38:48;;;;;;;0.05;0.00;;;7.80;99.90;;;;;;5094660;28;20399;-84
2022/11/17 05:41:15;;;;;;;1.17;0.75;;;7.80;99.90;;;;;;5094261;28;20044;-84
2022/11/17 05:43:41;;;;;;;0.00;0.00;;;7.70;99.90;;;;;;5094484;28;20074;-84
2022/11/17 05:46:06;;;;;;;0.00;0.00;;;7.70;99.90;;;;;;5078056;28;20480;-84
2022/11/17 05:48:32;;;;;;;0.00;0.00;;;7.70;99.90;;;;;;5077649;28;20110;-84
2022/11/17 05:50:59;;;;;;;0.03;0.00;;;7.70;99.90;;;;;;5094270;28;20160;-86
2022/11/17 05:53:25;;;;;;;0.32;0.10;;;7.70;99.90;;;;;;5093545;28;20097;-84
2022/11/17 05:56:05;;;;;;;0.00;0.00;;;7.70;99.90;;;;;;5077094;28;20043;-84
2022/11/17 05:58:32;;;;;;;0.40;0.40;;;7.60;99.90;;;;;;5077737;28;20458;-84
2022/11/17 06:00:58;;;;;;;0.00;0.00;;;7.60;99.90;;;;;;5094006;28;20052;-83
2022/11/17 06:03:38;;;;;;;0.17;0.17;;;7.60;99.90;;;;;;5094227;28;20048;-85
2022/11/17 06:06:04;;;;;;;0.00;0.00;;;7.60;99.90;;;;;;5094079;28;20044;-85
2022/11/17 06:08:30;;;;;;;0.00;0.00;;;7.60;99.90;;;;;;5093750;28;20040;-87
2022/11/17 06:10:55;;;;;;;0.00;0.00;;;7.60;99.90;;;;;;5076903;28;20048;-84
2022/11/17 06:13:27;;;;;;;0.15;0.00;;;7.60;99.90;;;;;;5093973;28;20036;-83
2022/11/17 06:15:56;;;;;;;0.10;0.10;;;7.60;99.90;;;;;;5093937;28;20048;-83
2022/11/17 06:18:42;;;;;;;1.33;0.13;;;7.70;99.90;;;;;;5077155;28;20044;-87
2022/11/17 06:21:09;;;;;;;0.10;0.00;;;7.50;99.90;;;;;;5077561;28;20048;-83
2022/11/17 06:23:36;;;;;;;0.85;0.00;;;7.50;99.90;;;;;;5093584;28;20048;-83
2022/11/17 06:26:06;;;;;;;0.20;0.20;;;7.50;99.90;;;;;;5093924;28;20048;-84
2022/11/17 06:28:33;;;;;;;0.17;0.17;;;7.50;99.90;;;;;;5093753;28;20488;-82
2022/11/17 06:30:59;;;;;;;0.60;0.10;;;7.60;99.90;;;;;;5093842;28;20055;-83
2022/11/17 06:33:28;;;;;;;0.28;0.20;;;7.50;99.90;;;;;;5076246;28;20048;-82
2022/11/17 06:35:54;;;;;;;0.28;0.15;;;7.50;99.90;;;;;;5076872;28;20047;-83
2022/11/17 06:38:19;;;;;;;0.00;0.00;;;7.50;99.90;;;;;;5093991;28;20040;-84
2022/11/17 06:40:45;;;;;;;0.10;0.10;;;7.50;99.90;;;;;;5093616;28;20083;-83
2022/11/17 06:43:11;;;;;;;0.00;0.00;;;7.50;99.90;;;;;;5093152;28;20048;-84
2022/11/17 06:45:38;;;;;;;0.10;0.00;;;7.50;99.90;;;;;;5075930;28;20051;-85
2022/11/17 06:48:05;;;;;;;0.05;0.00;;;7.40;99.90;;;;;;5092636;28;20102;-83
2022/11/17 06:50:31;;;;;;;0.20;0.20;;;7.50;99.90;;;;;;5076430;28;20040;-83
2022/11/17 06:52:59;;;;;;;0.20;0.10;;;7.50;99.90;;;;;;5078677;28;20058;-84
2022/11/17 06:55:25;;;;;;;0.43;0.10;;;7.50;99.90;;;;;;5081333;28;20052;-85
2022/11/17 06:57:51;;;;;;;0.00;0.00;;;7.50;99.90;;;;;;5076057;28;20506;-86
2022/11/17 07:00:18;;;;;;;0.00;0.00;;;7.50;99.90;;;;;;5075694;28;20052;-85
2022/11/17 07:02:44;;;;;;;0.10;0.10;;;7.50;99.90;;;;;;5092749;28;20388;-89
2022/11/17 07:05:10;;;;;;;0.38;0.38;;;7.50;99.90;;;;;;5076387;28;20059;-86
2022/11/17 07:07:35;;;;;;;0.15;0.00;;;7.40;99.90;;;;;;5076249;28;20044;-83
2022/11/17 07:10:01;;;;;;;0.52;0.10;;;7.50;99.90;;;;;;5076330;28;20070;-85
2022/11/17 07:12:26;;;;;;;0.00;0.00;;;7.50;99.90;;;;;;5075519;28;20099;-86
2022/11/17 07:14:52;;;;;;;0.10;0.10;;;7.50;99.90;;;;;;5075569;28;20036;-84
2022/11/17 07:17:18;;;;;;;0.00;0.00;;;7.50;99.90;;;;;;5075286;28;20052;-86
2022/11/17 07:19:43;;;;;;;0.05;0.05;;;7.50;99.90;;;;;;5076062;28;20036;-85
2022/11/17 07:22:09;;;;;;;0.57;0.32;;;7.50;99.90;;;;;;5075905;28;20048;-85
2022/11/17 07:24:34;;;;;;;0.98;0.10;;;7.50;99.90;;;;;;5076363;28;20036;-83
2022/11/17 07:27:00;;;;;;;0.25;0.20;;;7.50;99.90;;;;;;5093407;28;20040;-82
2022/11/17 07:29:27;;;;;;;0.00;0.00;;;7.50;99.90;;;;;;5092806;28;20117;-81
2022/11/17 07:31:53;;;;;;;0.20;0.20;;;7.50;99.90;;;;;;5075902;28;20044;-85
2022/11/17 07:34:19;;;;;;;0.57;0.15;;;7.50;99.90;;;;;;5092549;28;20063;-82
2022/11/17 07:36:44;;;;;;;0.52;0.30;;;7.40;99.90;;;;;;5075955;28;20055;-82
2022/11/17 07:39:11;;;;;;;0.73;0.32;;;7.50;99.90;;;;;;5075962;28;20555;-82
2022/11/17 07:41:36;;;;;;;0.00;0.00;;;7.50;99.90;;;;;;5076013;28;20102;-83
2022/11/17 07:44:02;;;;;;;0.00;0.00;;;7.50;99.90;;;;;;5111028;28;20419;-82
2022/11/17 07:46:28;;;;;;;0.20;0.00;;;7.50;99.90;;;;;;5095920;28;20059;-82
2022/11/17 07:48:55;;;;;;;0.25;0.10;;;7.50;99.90;;;;;;5113020;28;20047;-83
2022/11/17 07:51:20;;;;;;;0.00;0.00;;;7.50;99.90;;;;;;5113134;28;20051;-84
2022/11/17 07:53:46;;;;;;;0.08;0.00;;;7.70;99.90;;;;;;5112715;28;20188;-86
2022/11/17 07:56:12;;;;;;;0.05;0.00;;;7.50;99.90;;;;;;5096017;28;20047;-83
2022/11/17 07:58:39;;;;;;;0.00;0.00;;;7.50;99.90;;;;;;5095855;28;20043;-86
2022/11/17 08:01:10;;;;;;;0.17;0.00;;;7.50;99.90;;;;;;5113368;28;20060;-83
2022/11/17 08:03:36;;;;;;;0.00;0.00;;;7.60;99.90;;;;;;5096492;28;20426;-85
2022/11/17 08:06:04;;;;;;;1.88;0.80;;;7.60;99.90;;;;;;5095927;28;20044;-82
2022/11/17 08:08:30;;;;;;;0.00;0.00;;;7.50;99.90;;;;;;5095238;28;20067;-83
2022/11/17 08:10:55;;;;;;;0.00;0.00;;;7.50;99.90;;;;;;5112820;28;20410;-83
2022/11/17 08:13:23;;;;;;;7.97;0.85;;;7.50;99.90;;;;;;5106128;28;20047;-82
2022/11/17 08:15:55;;;;;;;0.15;0.08;;;7.50;99.90;;;;;;5103679;28;20043;-82
2022/11/17 08:18:20;;;;;;;1.15;0.10;;;7.50;99.90;;;;;;5084040;28;20060;-87
2022/11/17 08:20:46;;;;;;;0.73;0.20;;;7.60;99.90;;;;;;5103505;28;20042;-84
2022/11/17 08:23:11;;;;;;;3.75;0.20;;;7.50;99.90;;;;;;5101240;28;20123;-87
2022/11/17 08:25:37;;;;;;;0.35;0.35;;;7.50;99.90;;;;;;5107824;28;20044;-83
2022/11/17 08:28:03;;;;;;;0.85;0.52;;;7.50;99.90;;;;;;5085769;28;20032;-86
2022/11/17 08:30:31;;;;;;;0.28;0.00;;;7.50;99.90;;;;;;5090758;28;20043;-85
2022/11/17 08:32:56;;;;;;;0.00;0.00;;;7.50;99.90;;;;;;5099264;28;20048;-83
2022/11/17 08:35:24;;;;;;;0.03;0.03;;;7.50;99.90;;;;;;5116036;28;20129;-83
2022/11/17 08:37:50;;;;;;;0.55;0.55;;;7.60;99.90;;;;;;5099137;28;20055;-87
2022/11/17 08:40:19;;;;;;;0.00;0.00;;;7.50;99.90;;;;;;5115930;28;20564;-89
2022/11/17 08:42:45;;;;;;;0.00;0.00;;;7.50;99.90;;;;;;5099260;28;20044;-84
2022/11/17 08:45:12;;;;;;;0.50;0.10;;;7.50;99.90;;;;;;5098893;28;20047;-84
2022/11/17 08:47:38;;;;;;;0.20;0.10;;;7.50;99.90;;;;;;5098776;28;20475;-84
2022/11/17 08:50:05;;;;;;;0.20;0.05;;;7.50;99.90;;;;;;5115923;28;20040;-83
2022/11/17 08:52:31;;;;;;;0.00;0.00;;;7.50;99.90;;;;;;5098943;28;20069;-83
2022/11/17 08:54:57;;;;;;;0.20;0.00;;;7.50;99.90;;;;;;5098446;28;20032;-84
2022/11/17 08:57:22;;;;;;;0.30;0.30;;;7.60;99.90;;;;;;5098748;28;20101;-83
2022/11/17 08:59:48;;;;;;;0.13;0.13;;;7.60;99.90;;;;;;5115717;28;20047;-83
2022/11/17 09:02:15;;;;;;;0.30;0.00;;;7.70;99.90;;;;;;5112971;28;20044;-81
2022/11/17 09:04:41;;;;;;;0.00;0.00;;;7.60;99.90;;;;;;5098889;28;20070;-81
2022/11/17 09:07:06;;;;;;;0.10;0.10;;;7.60;99.90;;;;;;5098228;28;20055;-81
2022/11/17 09:09:32;;;;;;;0.00;0.00;;;7.60;99.90;;;;;;5115167;28;20043;-81
2022/11/17 09:11:59;;;;;;;0.00;0.00;;;7.60;99.90;;;;;;5107889;28;20040;-82
2022/11/17 09:14:25;;;;;;;0.00;0.00;;;7.70;99.90;;;;;;5093507;28;20048;-83
2022/11/17 09:16:51;;;;;;;0.03;0.03;;;7.60;99.90;;;;;;5075549;28;20126;-83
2022/11/17 09:19:17;;;;;;;0.20;0.10;;;7.60;99.90;;;;;;5075752;28;20079;-82
2022/11/17 09:21:43;;;;;;;0.00;0.00;;;7.60;99.90;;;;;;5075241;28;20503;-83
2022/11/17 09:24:09;;;;;;;0.10;0.10;;;7.60;99.90;;;;;;5092875;28;20060;-82
2022/11/17 09:26:35;;;;;;;0.00;0.00;;;7.70;99.90;;;;;;5091779;28;20518;-82
2022/11/17 09:29:02;;;;;;;0.00;0.00;;;7.70;99.90;;;;;;5076405;28;20113;-82
2022/11/17 09:31:28;;;;;;;0.30;0.30;;;7.80;99.90;;;;;;5092811;28;20119;-81
2022/11/17 09:33:55;;;;;;;0.00;0.00;;;7.70;99.90;;;;;;5091901;28;20135;-81
2022/11/17 09:36:20;;;;;;;0.10;0.00;;;7.70;99.90;;;;;;5092740;28;20446;-82
2022/11/17 09:38:46;;;;;;;0.90;0.60;;;7.70;99.90;;;;;;5075820;28;20051;-82
2022/11/17 09:41:15;;;;;;;0.25;0.20;;;7.70;99.90;;;;;;5092567;28;20044;-83
2022/11/17 09:43:51;;;;;;;0.00;0.00;;;7.70;99.90;;;;;;5075205;28;20403;-83
2022/11/17 09:46:30;;;;;;;0.20;0.03;;;7.60;99.90;;;;;;5074524;28;20079;-83
2022/11/17 09:49:09;;;;;;;0.10;0.10;;;7.70;99.90;;;;;;5092322;28;20074;-83
2022/11/17 09:51:38;;;;;;;0.00;0.00;;;7.70;99.90;;;;;;5074405;28;20056;-83
2022/11/17 09:54:19;;;;;;;0.05;0.05;;;7.80;99.90;;;;;;5074633;28;20052;-84
2022/11/17 09:56:46;;;;;;;0.35;0.10;;;7.70;99.90;;;;;;5091997;28;20055;-83
2022/11/17 09:59:15;;;;;;;0.10;0.10;;;7.80;99.90;;;;;;5092591;28;20048;-83
2022/11/17 10:01:41;;;;;;;0.00;0.00;;;7.80;99.90;;;;;;5092136;28;20052;-84
2022/11/17 10:04:12;;;;;;;0.00;0.00;;;7.80;99.90;;;;;;5091346;28;20067;-84
2022/11/17 10:06:41;;;;;;;0.05;0.05;;;7.80;99.90;;;;;;5077343;28;20071;-83
2022/11/17 10:09:34;;;;;;;0.00;0.00;;;7.80;99.90;;;;;;5080894;28;20056;-81
2022/11/17 10:12:17;;;;;;;5.10;0.40;;;7.90;99.90;;;;;;5074237;28;20514;-82
2022/11/17 10:14:43;;;;;;;0.00;0.00;;;7.90;99.90;;;;;;5074273;28;20503;-82
2022/11/17 10:17:09;;;;;;;0.00;0.00;;;7.90;99.90;;;;;;5080349;28;20460;-82
2022/11/17 10:19:37;;;;;;;0.43;0.43;;;8.00;99.90;;;;;;5094428;28;20061;-82
2022/11/17 10:22:02;;;;;;;0.20;0.00;;;8.00;99.90;;;;;;5093710;28;20040;-83
2022/11/17 10:25:01;;;;;;;0.00;0.00;;;8.10;99.90;;;;;;5094978;28;20460;-82
2022/11/17 10:27:32;;;;;;;0.20;0.08;;;8.10;99.90;;;;;;4997032;28;20053;-83
2022/11/17 10:30:05;;;;;;;0.00;0.00;;;8.20;99.90;;;;;;4994231;28;20141;-83
2022/11/17 10:32:35;;;;;;;0.10;0.00;;;8.20;99.90;;;;;;5007855;28;20061;-82
2022/11/17 10:35:22;;;;;;;0.00;0.00;;;8.30;99.90;;;;;;5012533;28;20145;-83
2022/11/17 10:38:01;;;;;;;0.08;0.00;;;8.40;99.90;;;;;;5003629;28;20061;-82
2022/11/17 10:40:30;;;;;;;0.03;0.03;;;8.30;99.90;;;;;;4985313;28;20452;-82
2022/11/17 10:43:12;;;;;;;0.00;0.00;;;8.40;99.90;;;;;;4998978;28;20055;-82
2022/11/17 10:45:49;;;;;;;0.80;0.00;;;8.40;99.90;;;;;;5015035;28;20053;-83
2022/11/17 10:48:23;;;;;;;0.00;0.00;;;8.40;99.90;;;;;;4998100;28;20049;-82
2022/11/17 10:50:59;;;;;;;0.10;0.00;;;8.40;99.90;;;;;;5014246;28;20057;-81
2022/11/17 10:53:29;;;;;;;0.00;0.00;;;8.40;99.90;;;;;;5015269;28;20048;-81
2022/11/17 10:56:05;;;;;;;0.00;0.00;;;8.30;99.90;;;;;;5015171;28;20037;-81
2022/11/17 10:58:49;;;;;;;0.10;0.10;;;8.40;99.90;;;;;;5011887;28;20057;-81
2022/11/17 11:01:27;;;;;;;0.00;0.00;;;8.30;99.90;;;;;;5019593;28;20485;-81
2022/11/17 11:03:52;;;;;;;0.00;0.00;;;8.30;99.90;;;;;;5053329;28;20109;-78
2022/11/17 11:06:25;;;;;;;0.98;0.10;;;8.30;99.90;;;;;;5092890;28;20052;-79
2022/11/17 11:09:11;;;;;;;0.00;0.00;;;8.30;99.90;;;;;;5076149;28;20386;-82
2022/11/17 11:11:41;;;;;;;0.00;0.00;;;8.30;99.90;;;;;;5075729;28;20059;-82
2022/11/17 11:14:35;;;;;;;0.00;0.00;;;8.40;99.90;;;;;;5076108;28;20040;-81
2022/11/17 11:17:12;;;;;;;0.00;0.00;;;8.40;99.90;;;;;;5092928;28;20476;-82
2022/11/17 11:19:40;;;;;;;0.00;0.00;;;8.40;99.90;;;;;;5093128;28;20043;-84
2022/11/17 11:22:24;;;;;;;0.00;0.00;;;8.40;99.90;;;;;;5092422;28;20097;-82
2022/11/17 11:25:09;;;;;;;0.00;0.00;;;8.50;99.90;;;;;;5076003;28;20208;-82
2022/11/17 11:28:02;;;;;;;0.00;0.00;;;8.60;99.90;;;;;;5092741;28;20044;-82
2022/11/17 11:30:36;;;;;;;0.50;0.50;;;8.60;99.90;;;;;;5092560;28;20446;-83
2022/11/17 11:33:28;;;;;;;0.40;0.40;;;8.70;99.90;;;;;;5071761;28;20056;-83
2022/11/17 11:36:04;;;;;;;0.00;0.00;;;8.70;99.90;;;;;;5068411;28;20044;-83
2022/11/17 11:38:59;;;;;;;0.00;0.00;;;8.70;99.90;;;;;;5074074;28;20496;-83
2022/11/17 11:41:28;;;;;;;;;;;8.80;99.90;;;;;;5108161;28;20503;-83
2022/11/17 11:44:21;;;;;;;0.60;0.60;;;8.80;99.90;;;;;;5072884;28;19920;-83
2022/11/17 11:47:03;;;;;;;0.45;0.10;;;8.80;99.90;;;;;;5073176;28;20052;-84
2022/11/17 11:49:34;;;;;;;0.30;0.30;;;8.90;99.90;;;;;;5073412;28;20503;-83
2022/11/17 11:52:03;;;;;;;0.03;0.00;;;8.90;99.90;;;;;;5073355;28;20402;-84
2022/11/17 11:54:41;;;;;;;1.25;0.00;;;9.00;99.90;;;;;;5092565;28;20190;-83
2022/11/17 11:57:12;;;;;;;0.00;0.00;;;9.00;99.90;;;;;;5075515;28;20368;-82
2022/11/17 11:59:50;;;;;;;0.25;0.20;;;9.00;99.90;;;;;;5075504;28;20127;-82
2022/11/17 12:02:47;;;;;;;0.00;0.00;;;9.00;99.90;;;;;;5103737;28;20487;-82
2022/11/17 12:05:19;;;;;;;0.00;0.00;;;9.10;99.90;;;;;;5037897;28;20113;-82
2022/11/17 12:08:19;;;;;;;1.05;0.35;;;9.10;99.90;;;;;;5021783;28;20139;-82
2022/11/17 12:10:52;;;;;;;0.32;0.32;;;9.20;99.90;;;;;;5037893;28;20053;-83
2022/11/17 12:13:20;;;;;;;0.00;0.00;;;9.30;99.90;;;;;;5021377;28;20061;-83
2022/11/17 12:15:46;;;;;;;0.00;0.00;;;9.40;99.90;;;;;;5021611;28;20057;-82
2022/11/17 12:18:17;;;;;;;0.10;0.00;;;9.50;99.90;;;;;;5038074;28;20392;-82
2022/11/17 12:20:54;;;;;;;0.00;0.00;;;9.70;99.90;;;;;;5021365;28;20566;-81
2022/11/17 12:23:52;;;;;;;0.00;0.00;;;9.70;99.90;;;;;;5036741;28;20144;-83
2022/11/17 12:26:26;;;;;;;0.00;0.00;;;9.80;99.90;;;;;;5015011;28;20104;-81
2022/11/17 12:29:23;;;;;;;0.00;0.00;;;9.80;99.90;;;;;;5014933;28;20145;-81
2022/11/17 12:31:54;;;;;;;0.00;0.00;;;9.90;99.90;;;;;;5017594;28;20464;-81
2022/11/17 12:34:38;;;;;;;4.57;0.40;;;9.90;99.90;;;;;;5001320;28;20604;-80
2022/11/17 12:37:17;;;;;;;0.00;0.00;;;10.00;99.90;;;;;;5018166;28;20410;-81
2022/11/17 12:40:03;;;;;;;0.17;0.17;;;10.00;99.90;;;;;;5018716;28;20049;-82
2022/11/17 12:42:31;;;;;;;0.30;0.25;;;10.00;99.90;;;;;;5068475;28;20055;-81
2022/11/17 12:45:05;;;;;;;0.03;0.00;;;10.00;99.90;;;;;;5095095;28;20044;-83
2022/11/17 12:47:37;;;;;;;0.00;0.00;;;10.10;99.90;;;;;;5077371;28;20044;-82
2022/11/17 12:50:07;;;;;;;0.00;0.00;;;10.10;99.90;;;;;;5095334;28;20052;-81
2022/11/17 12:52:42;;;;;;;0.00;0.00;;;10.10;99.90;;;;;;5095668;28;20040;-81
2022/11/17 12:55:34;;;;;;;0.25;0.25;;;10.10;99.90;;;;;;5095087;28;20131;-80
2022/11/17 12:58:32;;;;;;;0.00;0.00;;;10.10;99.90;;;;;;5095362;28;20055;-81
2022/11/17 13:01:22;;;;;;;0.00;0.00;;;10.10;99.90;;;;;;5079138;28;20491;-80
2022/11/17 13:04:13;;;;;;;0.25;0.10;;;10.10;99.90;;;;;;5098067;28;20441;-80
2022/11/17 13:07:06;;;;;;;0.00;0.00;;;10.10;99.90;;;;;;5098139;28;20056;-80
2022/11/17 13:09:35;;;;;;;0.13;0.13;;;10.20;99.90;;;;;;5081905;28;20044;-80
2022/11/17 13:12:09;;;;;;;0.00;0.00;;;10.10;99.90;;;;;;5081761;28;20044;-80
2022/11/17 13:14:54;;;;;;;0.00;0.00;;;10.20;99.90;;;;;;5097440;28;20047;-80
2022/11/17 13:17:27;;;;;;;0.00;0.00;;;10.20;99.90;;;;;;5097549;28;20063;-80
2022/11/17 13:20:14;;;;;;;0.20;0.20;;;10.20;99.90;;;;;;5098127;28;20046;-79
2022/11/17 13:22:40;;;;;;;0.00;0.00;;;10.10;99.90;;;;;;5098726;28;20052;-82
2022/11/17 13:25:21;;;;;;;0.00;0.00;;;10.20;99.90;;;;;;5098295;28;20076;-79
2022/11/17 13:27:46;;;;;;;0.00;0.00;;;10.20;99.90;;;;;;5098101;28;20047;-79
2022/11/17 13:30:22;;;;;;;0.00;0.00;;;10.20;99.90;;;;;;5080575;28;20067;-79
2022/11/17 13:32:49;;;;;;;0.00;0.00;;;10.20;99.90;;;;;;5081330;28;20391;-80
2022/11/17 13:35:31;;;;;;;0.00;0.00;;;10.20;99.90;;;;;;5080969;28;20126;-80
2022/11/17 13:38:04;;;;;;;0.00;0.00;;;10.20;99.90;;;;;;5081007;28;20059;-79
2022/11/17 13:40:32;;;;;;;0.00;0.00;;;10.10;99.90;;;;;;5097582;28;20115;-78
2022/11/17 13:42:59;;;;;;;0.00;0.00;;;10.20;99.90;;;;;;5097482;28;20169;-79
2022/11/17 13:45:25;;;;;;;0.00;0.00;;;10.20;99.90;;;;;;5097417;28;20135;-79
2022/11/17 13:47:52;;;;;;;0.20;0.20;;;10.20;99.90;;;;;;5097617;28;20118;-79